createdAt,value
2022-07-29T00:02:03.449Z,99669.63
2022-07-29T00:04:31.244Z,99673.22
2022-07-29T00:06:59.819Z,99672.09
2022-07-29T00:09:51.309Z,99669.03
2022-07-29T00:12:26.235Z,99673.50
2022-07-29T00:14:57.343Z,99671.81
2022-07-29T00:17:28.780Z,99671.28
2022-07-29T00:19:58.891Z,99669.44
2022-07-29T00:22:28.076Z,99664.78
2022-07-29T00:24:55.723Z,99664.72
2022-07-29T00:27:23.482Z,99659.09
2022-07-29T00:29:51.190Z,99661.25
2022-07-29T00:32:18.677Z,99662.06
2022-07-29T00:35:07.999Z,99656.47
2022-07-29T00:37:44.058Z,99659.38
2022-07-29T00:40:16.149Z,99661.13
2022-07-29T00:42:51.882Z,99656.38
2022-07-29T00:45:20.222Z,99656.66
2022-07-29T00:47:49.861Z,99654.91
2022-07-29T00:50:27.555Z,99649.41
2022-07-29T00:53:04.533Z,99642.69
2022-07-29T00:55:46.563Z,99637.03
2022-07-29T00:58:15.075Z,99640.94
2022-07-29T01:00:44.914Z,99639.47
2022-07-29T01:03:13.731Z,99637.56
2022-07-29T01:05:50.751Z,99636.50
2022-07-29T01:08:21.303Z,99633.66
2022-07-29T01:10:50.390Z,99628.63
2022-07-29T01:13:20.126Z,99633.16
2022-07-29T01:15:57.830Z,99625.97
2022-07-29T01:18:28.254Z,99625.78
2022-07-29T01:21:17.480Z,99614.63
2022-07-29T01:24:18.416Z,99625.25
2022-07-29T01:27:27.516Z,99623.41
2022-07-29T01:30:00.850Z,99625.09
2022-07-29T01:32:32.789Z,99606.06
2022-07-29T01:35:22.227Z,99614.84
2022-07-29T01:38:08.111Z,99608.53
2022-07-29T01:40:44.023Z,99617.81
2022-07-29T01:43:15.650Z,99616.66
2022-07-29T01:45:54.298Z,99612.78
2022-07-29T01:48:56.961Z,99614.44
2022-07-29T01:51:44.144Z,99618.31
2022-07-29T01:54:28.251Z,99609.28
2022-07-29T01:57:00.747Z,99609.63
2022-07-29T01:59:37.125Z,99612.38
2022-07-29T02:02:13.729Z,99623.22
2022-07-29T02:04:51.745Z,99614.19
2022-07-29T02:07:23.426Z,99614.69
2022-07-29T02:09:54.240Z,99614.19
2022-07-29T02:12:28.092Z,99617.41
2022-07-29T02:15:02.702Z,99609.81
2022-07-29T02:17:57.558Z,99616.97
2022-07-29T02:20:27.921Z,99615.00
2022-07-29T02:22:58.192Z,99620.78
2022-07-29T02:25:38.037Z,99602.59
2022-07-29T02:28:08.643Z,99614.69
2022-07-29T02:30:46.209Z,99606.00
2022-07-29T02:33:17.973Z,99606.44
2022-07-29T02:35:49.525Z,99613.63
2022-07-29T02:38:52.967Z,99607.91
2022-07-29T02:41:30.690Z,99605.94
2022-07-29T02:44:11.518Z,99613.22
2022-07-29T02:46:54.786Z,99606.06
2022-07-29T02:53:32.929Z,99605.22
2022-07-29T02:56:23.872Z,99608.25
2022-07-29T02:59:10.555Z,99608.50
2022-07-29T03:01:46.271Z,99608.50
2022-07-29T03:04:19.255Z,99612.75
2022-07-29T03:06:49.757Z,99611.88
2022-07-29T03:09:31.140Z,99609.41
2022-07-29T03:12:06.833Z,99611.59
2022-07-29T03:14:37.080Z,99615.13
2022-07-29T03:19:52.917Z,99622.47
2022-07-29T03:22:23.234Z,99620.31
2022-07-29T03:24:55.300Z,99622.00
2022-07-29T03:27:25.951Z,99622.00
2022-07-29T03:29:55.496Z,99619.88
2022-07-29T03:32:25.352Z,99621.56
2022-07-29T03:34:53.138Z,99622.69
2022-07-29T03:37:26.330Z,99631.44
2022-07-29T03:40:04.954Z,99634.78
2022-07-29T03:42:40.226Z,99627.31
2022-07-29T03:45:21.401Z,99630.69
2022-07-29T03:48:00.559Z,99637.56
2022-07-29T03:50:35.003Z,99646.34
2022-07-29T03:53:08.291Z,99632.00
2022-07-29T03:55:43.667Z,99638.91
2022-07-29T03:58:15.381Z,99639.75
2022-07-29T04:00:43.967Z,99649.09
2022-07-29T04:03:16.991Z,99645.81
2022-07-29T04:05:45.410Z,99646.56
2022-07-29T04:08:14.088Z,99647.16
2022-07-29T04:10:42.800Z,99641.38
2022-07-29T04:13:12.963Z,99643.81
2022-07-29T04:15:40.828Z,99646.31
2022-07-29T04:18:08.602Z,99651.50
2022-07-29T04:20:42.168Z,99649.56
2022-07-29T04:23:13.123Z,99662.78
2022-07-29T04:25:43.939Z,99649.88
2022-07-29T04:28:13.307Z,99653.44
2022-07-29T04:30:43.671Z,99660.91
2022-07-29T04:33:13.696Z,99664.44
2022-07-29T04:35:45.791Z,99656.44
2022-07-29T04:38:24.608Z,99659.72
2022-07-29T04:40:55.226Z,99660.81
2022-07-29T04:43:29.179Z,99661.91
2022-07-29T04:46:09.817Z,99672.59
2022-07-29T04:48:40.821Z,99667.69
2022-07-29T04:51:08.550Z,99671.56
2022-07-29T04:53:41.131Z,99665.84
2022-07-29T04:56:11.684Z,99663.66
2022-07-29T04:58:39.522Z,99661.69
2022-07-29T05:01:13.553Z,99660.84
2022-07-29T05:04:10.071Z,99654.25
2022-07-29T05:06:43.167Z,99645.66
2022-07-29T05:09:14.412Z,99654.44
2022-07-29T05:11:45.329Z,99662.59
2022-07-29T05:14:14.369Z,99661.16
2022-07-29T05:16:45.357Z,99666.56
2022-07-29T05:19:17.386Z,99672.84
2022-07-29T05:24:36.908Z,99664.59
2022-07-29T05:27:09.929Z,99672.34
2022-07-29T05:29:45.909Z,99671.69
2022-07-29T05:32:15.438Z,99679.25
2022-07-29T05:34:50.796Z,99679.19
2022-07-29T05:37:21.440Z,99686.78
2022-07-29T05:39:56.164Z,99683.34
2022-07-29T05:42:28.842Z,99680.09
2022-07-29T05:44:57.666Z,99688.72
2022-07-29T05:47:33.412Z,99690.47
2022-07-29T05:50:09.806Z,99691.09
2022-07-29T05:52:37.123Z,99690.97
2022-07-29T05:55:06.698Z,99687.66
2022-07-29T05:57:34.381Z,99687.47
2022-07-29T06:00:01.828Z,99676.84
2022-07-29T06:02:40.308Z,99679.34
2022-07-29T06:05:10.610Z,99687.53
2022-07-29T06:07:50.703Z,99679.66
2022-07-29T06:10:20.180Z,99683.75
2022-07-29T06:12:51.744Z,99682.44
2022-07-29T06:15:20.447Z,99681.75
2022-07-29T06:17:59.941Z,99692.94
2022-07-29T06:20:31.883Z,99679.72
2022-07-29T06:23:01.018Z,99686.19
2022-07-29T06:25:33.470Z,99684.94
2022-07-29T06:28:02.596Z,99699.84
2022-07-29T06:30:30.530Z,99683.78
2022-07-29T06:32:58.014Z,99684.59
2022-07-29T06:35:38.891Z,99679.78
2022-07-29T06:38:31.245Z,99681.13
2022-07-29T06:41:25.232Z,99674.78
2022-07-29T06:43:55.377Z,99672.31
2022-07-29T06:46:24.686Z,99674.41
2022-07-29T06:48:53.363Z,99681.88
2022-07-29T06:51:23.167Z,99679.81
2022-07-29T06:54:00.373Z,99658.38
2022-07-29T06:56:39.741Z,99686.25
2022-07-29T06:59:10.206Z,99687.06
2022-07-29T07:01:42.205Z,99684.47
2022-07-29T07:04:12.002Z,99682.81
2022-07-29T07:06:39.652Z,99687.38
2022-07-29T07:09:07.339Z,99662.25
2022-07-29T07:11:35.220Z,99677.34
2022-07-29T07:14:04.089Z,99675.97
2022-07-29T07:16:40.633Z,99683.56
2022-07-29T07:19:08.681Z,99669.47
2022-07-29T07:21:38.697Z,99676.91
2022-07-29T07:24:06.805Z,99684.94
2022-07-29T07:26:35.986Z,99680.59
2022-07-29T07:29:05.765Z,99678.19
2022-07-29T07:31:35.084Z,99690.47
2022-07-29T07:34:02.714Z,99691.34
2022-07-29T07:36:30.241Z,99687.97
2022-07-29T07:38:57.612Z,99680.78
2022-07-29T07:41:25.553Z,99688.66
2022-07-29T07:43:53.154Z,99703.88
2022-07-29T07:46:20.934Z,99687.50
2022-07-29T07:48:51.231Z,99698.13
2022-07-29T07:51:21.678Z,99687.34
2022-07-29T07:53:53.634Z,99685.00
2022-07-29T07:56:25.838Z,99692.75
2022-07-29T07:58:53.513Z,99683.53
2022-07-29T08:01:24.219Z,99689.16
2022-07-29T08:03:52.323Z,99689.16
2022-07-29T08:06:22.033Z,99680.94
2022-07-29T08:08:51.895Z,99690.78
2022-07-29T08:11:22.018Z,99691.41
2022-07-29T08:13:49.779Z,99689.31
2022-07-29T08:16:21.131Z,99691.28
2022-07-29T08:18:49.778Z,99699.16
2022-07-29T08:21:18.872Z,99698.91
2022-07-29T08:24:12.850Z,99695.22
2022-07-29T08:26:42.138Z,99680.91
2022-07-29T08:29:10.428Z,99689.78
2022-07-29T08:31:39.594Z,99689.00
2022-07-29T08:34:13.212Z,99687.84
2022-07-29T08:36:41.998Z,99690.63
2022-07-29T08:39:11.672Z,99690.78
2022-07-29T08:41:42.733Z,99686.22
2022-07-29T08:44:30.940Z,99680.59
2022-07-29T08:46:59.741Z,99695.34
2022-07-29T08:49:31.389Z,99678.13
2022-07-29T08:52:01.321Z,99685.66
2022-07-29T08:54:31.620Z,99688.91
2022-07-29T08:57:00.196Z,99683.78
2022-07-29T08:59:29.496Z,99679.66
2022-07-29T09:02:01.427Z,99681.66
2022-07-29T09:04:37.231Z,99679.41
2022-07-29T09:07:06.969Z,99684.91
2022-07-29T09:09:35.263Z,99685.53
2022-07-29T09:12:05.160Z,99686.31
2022-07-29T09:14:34.115Z,99681.97
2022-07-29T09:17:02.175Z,99677.84
2022-07-29T09:19:51.141Z,99681.06
2022-07-29T09:22:41.907Z,99686.69
2022-07-29T09:25:13.104Z,99676.19
2022-07-29T09:27:41.693Z,99672.78
2022-07-29T09:30:11.823Z,99662.06
2022-07-29T09:32:59.402Z,99672.75
2022-07-29T09:35:28.256Z,99678.38
2022-07-29T09:37:56.129Z,99669.53
2022-07-29T09:40:30.592Z,99665.72
2022-07-29T09:43:19.616Z,99661.50
2022-07-29T09:45:50.424Z,99664.84
2022-07-29T09:48:28.425Z,99666.50
2022-07-29T09:50:56.165Z,99657.34
2022-07-29T09:53:36.653Z,99651.38
2022-07-29T09:56:06.308Z,99657.16
2022-07-29T09:58:35.049Z,99651.75
2022-07-29T10:01:02.968Z,99667.25
2022-07-29T10:03:30.669Z,99658.31
2022-07-29T10:06:16.872Z,99646.22
2022-07-29T10:08:48.532Z,99650.91
2022-07-29T10:11:20.195Z,99646.38
2022-07-29T10:13:50.775Z,99636.66
2022-07-29T10:16:19.287Z,99639.28
2022-07-29T10:18:48.095Z,99631.13
2022-07-29T10:21:34.766Z,99631.94
2022-07-29T10:24:15.033Z,99634.75
2022-07-29T10:26:45.201Z,99631.50
2022-07-29T10:29:14.074Z,99630.88
2022-07-29T10:31:53.447Z,99621.81
2022-07-29T10:34:31.515Z,99622.22
2022-07-29T10:37:21.238Z,99611.31
2022-07-29T10:40:30.111Z,99616.75
2022-07-29T10:43:11.159Z,99607.25
2022-07-29T10:45:56.121Z,99607.00
2022-07-29T10:48:26.061Z,99594.56
2022-07-29T10:51:06.864Z,99611.13
2022-07-29T10:53:49.189Z,99598.75
2022-07-29T10:56:38.508Z,99596.13
2022-07-29T10:59:23.537Z,99590.94
2022-07-29T11:01:53.662Z,99577.97
2022-07-29T11:04:44.634Z,99584.13
2022-07-29T11:07:15.099Z,99580.59
2022-07-29T11:09:43.901Z,99588.56
2022-07-29T11:12:37.337Z,99580.06
2022-07-29T11:15:09.815Z,99590.63
2022-07-29T11:18:05.429Z,99578.81
2022-07-29T11:20:45.945Z,99568.78
2022-07-29T11:23:33.383Z,99573.63
2022-07-29T11:26:12.851Z,99571.44
2022-07-29T11:28:57.086Z,99564.13
2022-07-29T11:31:47.680Z,99556.66
2022-07-29T11:34:38.106Z,99560.50
2022-07-29T11:37:14.901Z,99556.78
2022-07-29T11:39:43.365Z,99550.56
2022-07-29T11:42:32.577Z,99552.31
2022-07-29T11:45:09.017Z,99556.50
2022-07-29T11:48:31.581Z,99553.50
2022-07-29T11:50:51.973Z,99552.69
2022-07-29T11:53:24.963Z,99556.59
2022-07-29T11:56:02.831Z,99551.78
2022-07-29T11:58:38.469Z,99550.94
2022-07-29T12:01:07.429Z,99552.75
2022-07-29T12:03:36.972Z,99558.81
2022-07-29T12:06:15.076Z,99557.47
2022-07-29T12:08:44.308Z,99545.50
2022-07-29T12:11:21.185Z,99552.72
2022-07-29T12:13:51.830Z,99551.03
2022-07-29T12:16:25.850Z,99553.03
2022-07-29T12:18:59.499Z,99552.91
2022-07-29T12:21:28.880Z,99551.28
2022-07-29T12:24:03.365Z,99547.59
2022-07-29T12:26:37.277Z,99546.56
2022-07-29T12:29:11.207Z,99541.47
2022-07-29T12:31:42.817Z,99550.31
2022-07-29T12:34:16.959Z,99540.69
2022-07-29T12:36:45.887Z,99538.56
2022-07-29T12:39:16.639Z,99536.88
2022-07-29T12:41:46.316Z,99533.34
2022-07-29T12:44:15.622Z,99535.13
2022-07-29T12:46:44.459Z,99533.50
2022-07-29T12:49:22.966Z,99524.81
2022-07-29T12:51:51.234Z,99520.63
2022-07-29T12:54:20.023Z,99519.31
2022-07-29T12:56:47.470Z,99525.13
2022-07-29T12:59:24.694Z,99518.78
2022-07-29T13:01:54.785Z,99523.09
2022-07-29T13:04:28.465Z,99515.41
2022-07-29T13:07:09.232Z,99514.25
2022-07-29T13:09:46.657Z,99512.19
2022-07-29T13:12:15.143Z,99502.81
2022-07-29T13:14:48.525Z,99504.34
2022-07-29T13:17:19.202Z,99494.03
2022-07-29T13:19:50.760Z,99498.53
2022-07-29T13:22:20.762Z,99500.91
2022-07-29T13:24:50.559Z,99494.84
2022-07-29T13:27:19.980Z,99497.78
2022-07-29T13:29:48.314Z,99494.03
2022-07-29T13:32:15.842Z,99496.28
2022-07-29T13:34:43.269Z,99491.91
2022-07-29T13:37:11.463Z,99490.84
2022-07-29T13:39:39.116Z,99483.09
2022-07-29T13:42:10.909Z,99475.25
2022-07-29T13:44:39.261Z,99479.75
2022-07-29T13:47:07.985Z,99476.28
2022-07-29T13:49:36.086Z,99473.63
2022-07-29T13:52:04.553Z,99466.47
2022-07-29T13:54:32.207Z,99463.13
2022-07-29T13:56:59.688Z,99464.78
2022-07-29T13:59:27.543Z,99463.13
2022-07-29T14:01:55.433Z,99466.78
2022-07-29T14:04:26.955Z,99475.59
2022-07-29T14:06:55.099Z,99462.81
2022-07-29T14:09:24.802Z,99465.16
2022-07-29T14:11:53.940Z,99457.63
2022-07-29T14:14:21.578Z,99455.47
2022-07-29T14:16:52.193Z,99459.22
2022-07-29T14:19:19.935Z,99451.19
2022-07-29T14:21:48.405Z,99446.22
2022-07-29T14:24:23.114Z,99452.94
2022-07-29T14:26:51.483Z,99457.78
2022-07-29T14:29:18.971Z,99448.34
2022-07-29T14:31:49.898Z,99451.72
2022-07-29T14:34:18.498Z,99445.69
2022-07-29T14:36:47.032Z,99447.22
2022-07-29T14:39:16.823Z,99450.22
2022-07-29T14:41:44.815Z,99453.00
2022-07-29T14:44:12.461Z,99451.31
2022-07-29T14:46:40.175Z,99445.69
2022-07-29T14:49:09.511Z,99452.31
2022-07-29T14:51:42.689Z,99451.16
2022-07-29T14:54:11.570Z,99438.97
2022-07-29T14:56:46.726Z,99448.13
2022-07-29T14:59:16.286Z,99439.63
2022-07-29T15:01:46.269Z,99440.91
2022-07-29T15:04:16.161Z,99438.72
2022-07-29T15:06:44.186Z,99442.31
2022-07-29T15:09:11.814Z,99434.66
2022-07-29T15:11:41.109Z,99430.16
2022-07-29T15:14:08.800Z,99425.88
2022-07-29T15:16:43.500Z,99425.84
2022-07-29T15:19:12.549Z,99420.56
2022-07-29T15:21:41.662Z,99411.94
2022-07-29T15:24:22.275Z,99415.53
2022-07-29T15:26:49.800Z,99421.66
2022-07-29T15:29:21.118Z,99419.69
2022-07-29T15:31:52.592Z,99408.66
2022-07-29T15:34:44.734Z,99411.69
2022-07-29T15:37:22.509Z,99406.31
2022-07-29T15:40:09.573Z,99398.47
2022-07-29T15:42:38.899Z,99396.44
2022-07-29T15:45:09.273Z,99390.50
2022-07-29T15:47:38.655Z,99391.28
2022-07-29T15:50:18.824Z,99392.25
2022-07-29T15:53:09.669Z,99387.38
2022-07-29T15:55:48.938Z,99382.97
2022-07-29T15:58:34.571Z,99394.38
2022-07-29T16:01:14.818Z,99383.75
2022-07-29T16:04:01.601Z,99376.09
2022-07-29T16:06:40.580Z,99367.41
2022-07-29T16:09:08.139Z,99380.06
2022-07-29T16:11:36.343Z,99374.91
2022-07-29T16:14:23.390Z,99374.41
2022-07-29T16:16:51.452Z,99379.56
2022-07-29T16:19:24.791Z,99368.31
2022-07-29T16:21:54.974Z,99372.38
2022-07-29T16:24:29.995Z,99375.25
2022-07-29T16:27:02.400Z,99369.41
2022-07-29T16:29:31.654Z,99383.53
2022-07-29T16:32:06.309Z,99374.28
2022-07-29T16:34:35.293Z,99384.41
2022-07-29T16:37:35.961Z,99377.03
2022-07-29T16:40:14.212Z,99378.03
2022-07-29T16:42:46.935Z,99377.97
2022-07-29T16:45:21.659Z,99382.78
2022-07-29T16:47:50.237Z,99385.47
2022-07-29T16:50:18.069Z,99389.81
2022-07-29T16:52:45.629Z,99388.88
2022-07-29T16:55:14.626Z,99388.22
2022-07-29T16:58:00.154Z,99389.22
2022-07-29T17:00:30.092Z,99387.59
2022-07-29T17:03:00.733Z,99389.69
2022-07-29T17:05:53.400Z,99391.09
2022-07-29T17:08:24.068Z,99396.97
2022-07-29T17:10:51.526Z,99397.19
2022-07-29T17:13:18.968Z,99403.47
2022-07-29T17:15:46.665Z,99409.34
2022-07-29T17:18:14.057Z,99410.16
2022-07-29T17:20:48.480Z,99416.09
2022-07-29T17:23:26.781Z,99417.81
2022-07-29T17:25:59.870Z,99408.06
2022-07-29T17:28:27.634Z,99410.75
2022-07-29T17:30:57.113Z,99406.47
2022-07-29T17:33:28.919Z,99412.97
2022-07-29T17:36:18.595Z,99415.34
2022-07-29T17:39:04.494Z,99413.47
2022-07-29T17:41:35.142Z,99417.19
2022-07-29T17:44:05.587Z,99418.34
2022-07-29T17:46:43.668Z,99416.56
2022-07-29T17:49:12.306Z,99423.78
2022-07-29T17:55:17.527Z,99413.81
2022-07-29T17:57:48.480Z,99424.25
2022-07-29T18:00:18.648Z,99416.41
2022-07-29T18:03:12.078Z,99421.69
2022-07-29T18:05:39.418Z,99414.13
2022-07-29T18:08:06.770Z,99419.53
2022-07-29T18:10:34.286Z,99419.59
2022-07-29T18:13:02.915Z,99418.88
2022-07-29T18:15:30.955Z,99419.25
2022-07-29T18:17:58.375Z,99419.00
2022-07-29T18:20:28.759Z,99429.41
2022-07-29T18:22:56.290Z,99418.50
2022-07-29T18:25:25.905Z,99424.44
2022-07-29T18:27:56.155Z,99423.63
2022-07-29T18:30:25.996Z,99419.53
2022-07-29T18:33:19.201Z,99426.66
2022-07-29T18:35:42.327Z,99434.06
2022-07-29T18:38:09.679Z,99432.41
2022-07-29T18:40:40.233Z,99439.31
2022-07-29T18:43:09.484Z,99433.97
2022-07-29T18:45:36.765Z,99440.50
2022-07-29T18:48:12.831Z,99436.09
2022-07-29T18:50:41.961Z,99447.28
2022-07-29T18:53:09.355Z,99442.75
2022-07-29T18:55:36.647Z,99438.72
2022-07-29T18:58:04.258Z,99441.97
2022-07-29T19:00:31.928Z,99443.66
2022-07-29T19:03:00.288Z,99444.34
2022-07-29T19:05:27.951Z,99448.94
2022-07-29T19:07:56.242Z,99444.66
2022-07-29T19:10:23.615Z,99446.63
2022-07-29T19:12:51.177Z,99442.72
2022-07-29T19:15:20.754Z,99448.06
2022-07-29T19:17:51.990Z,99458.06
2022-07-29T19:20:22.960Z,99445.00
2022-07-29T19:23:10.946Z,99444.63
2022-07-29T19:25:53.146Z,99462.28
2022-07-29T19:28:25.366Z,99463.59
2022-07-29T19:30:52.992Z,99461.13
2022-07-29T19:33:21.022Z,99470.78
2022-07-29T19:35:54.364Z,99465.56
2022-07-29T19:38:23.233Z,99465.69
2022-07-29T19:41:09.805Z,99471.59
2022-07-29T19:43:49.886Z,99470.97
2022-07-29T19:46:25.827Z,99469.31
2022-07-29T19:48:57.866Z,99474.84
2022-07-29T19:51:30.949Z,99476.28
2022-07-29T19:54:01.063Z,99478.63
2022-07-29T19:56:30.210Z,99479.78
2022-07-29T19:58:58.124Z,99480.78
2022-07-29T20:01:26.193Z,99472.78
2022-07-29T20:03:54.071Z,99474.72
2022-07-29T20:06:21.361Z,99474.38
2022-07-29T20:08:49.081Z,99476.84
2022-07-29T20:11:17.121Z,99465.25
2022-07-29T20:13:46.785Z,99474.06
2022-07-29T20:16:23.316Z,99470.00
2022-07-29T20:18:54.180Z,99467.69
2022-07-29T20:21:27.023Z,99468.50
2022-07-29T20:24:02.476Z,99467.81
2022-07-29T20:26:39.055Z,99467.81
2022-07-29T20:29:07.176Z,99456.38
2022-07-29T20:31:40.335Z,99460.59
2022-07-29T20:34:15.648Z,99448.78
2022-07-29T20:36:46.361Z,99449.44
2022-07-29T20:39:21.415Z,99450.25
2022-07-29T20:41:56.505Z,99456.56
2022-07-29T20:45:03.433Z,99464.19
2022-07-29T20:48:02.872Z,99464.50
2022-07-29T20:50:34.948Z,99456.19
2022-07-29T20:53:07.224Z,99465.81
2022-07-29T20:55:35.360Z,99462.41
2022-07-29T20:58:03.319Z,99460.22
2022-07-29T21:00:32.113Z,99458.00
2022-07-29T21:03:10.179Z,99465.31
2022-07-29T21:06:20.376Z,99464.44
2022-07-29T21:09:28.292Z,99460.19
2022-07-29T21:12:00.567Z,99457.78
2022-07-29T21:14:47.823Z,99448.69
2022-07-29T21:17:16.974Z,99455.78
2022-07-29T21:19:44.531Z,99456.94
2022-07-29T21:22:12.665Z,99449.06
2022-07-29T21:24:41.399Z,99449.59
2022-07-29T21:27:28.396Z,99443.19
2022-07-29T21:30:00.097Z,99439.00
2022-07-29T21:32:30.315Z,99441.78
2022-07-29T21:35:00.307Z,99448.34
2022-07-29T21:37:28.773Z,99441.94
2022-07-29T21:39:59.668Z,99442.06
2022-07-29T21:42:35.541Z,99447.47
2022-07-29T21:45:05.842Z,99434.63
2022-07-29T21:47:41.205Z,99435.00
2022-07-29T21:50:18.775Z,99442.22
2022-07-29T21:53:06.073Z,99443.06
2022-07-29T21:56:00.483Z,99444.41
2022-07-29T21:58:46.454Z,99438.75
2022-07-29T22:01:39.200Z,99437.59
2022-07-29T22:04:23.994Z,99435.84
2022-07-29T22:07:19.016Z,99436.88
2022-07-29T22:09:58.422Z,99431.09
2022-07-29T22:12:29.323Z,99432.84
2022-07-29T22:20:03.251Z,99427.44
2022-07-29T22:22:54.928Z,99419.38
2022-07-29T22:25:29.375Z,99418.94
2022-07-29T22:27:57.433Z,99423.03
2022-07-29T22:30:29.931Z,99423.84
2022-07-29T22:33:04.872Z,99412.91
2022-07-29T22:35:36.705Z,99422.31
2022-07-29T22:38:04.277Z,99416.84
2022-07-29T22:40:36.089Z,99417.97
2022-07-29T22:43:06.754Z,99419.81
2022-07-29T22:45:41.665Z,99416.69
2022-07-29T22:48:09.366Z,99409.19
2022-07-29T22:50:37.233Z,99409.00
2022-07-29T22:53:04.514Z,99401.09
2022-07-29T22:55:32.082Z,99401.72
2022-07-29T22:58:03.540Z,99407.06
2022-07-29T23:00:32.866Z,99406.03
2022-07-29T23:06:54.323Z,99395.03
2022-07-29T23:09:21.871Z,99397.03
2022-07-29T23:11:50.418Z,99402.34
2022-07-29T23:14:57.036Z,99398.69
2022-07-29T23:18:26.636Z,99399.91
2022-07-29T23:21:01.212Z,99397.25
2022-07-29T23:23:32.509Z,99401.66
2022-07-29T23:26:02.375Z,99397.44
2022-07-29T23:28:32.283Z,99390.41
2022-07-29T23:30:59.724Z,99392.53
2022-07-29T23:33:27.498Z,99384.66
2022-07-29T23:35:55.033Z,99388.53
2022-07-29T23:38:26.656Z,99386.09
2022-07-29T23:41:03.197Z,99389.16
2022-07-29T23:43:59.780Z,99383.63
2022-07-29T23:46:40.350Z,99386.09
2022-07-29T23:49:18.598Z,99376.47
2022-07-29T23:55:37.431Z,99380.06
2022-07-29T23:58:41.864Z,99379.44
